<?xml version="1.0" encoding="UTF-8" standalone="no" ?>
<gpx xmlns="http://www.topografix.com/GPX/1/1" xmlns:xsi="http://www.w3.org/2001/XMLSchema-instance" xsi:schemaLocation="http://www.topografix.com/GPX/1/1 http://www.topografix.com/GPX/1/1/gpx.xsd" version="1.1" creator="VisuGPX - https://www.visugpx.com">
  <metadata>
    <name>StJacutPins_Cinqmoulins_16.5km</name>
    <desc><![CDATA[gnerando idor:8167003]]></desc>
  </metadata>
  <trk>
    <name><![CDATA[StJacut_CinqMoulins_16.5km-8167003]]></name>
    <extensions>
      <line xmlns="http://www.topografix.com/GPX/gpx_style/0/2">
        <color>0000FF</color>
        <width>4</width>
      </line>
    </extensions>
    <trkseg>
      <trkpt lat="47.68563" lon="-2.20264">
        <ele>42</ele>
        <time>2023-11-13T06:47:01Z</time>
      </trkpt>
      <trkpt lat="47.68732" lon="-2.19975">
        <ele>26</ele>
        <time>2023-11-13T06:52:45Z</time>
      </trkpt>
      <trkpt lat="47.68948" lon="-2.21095">
        <ele>42</ele>
        <time>2023-11-13T07:10:11Z</time>
      </trkpt>
      <trkpt lat="47.68983" lon="-2.21087">
        <ele>41</ele>
        <time>2023-11-13T07:10:59Z</time>
      </trkpt>
      <trkpt lat="47.69035" lon="-2.21426">
        <ele>47</ele>
        <time>2023-11-13T07:16:11Z</time>
      </trkpt>
      <trkpt lat="47.69061" lon="-2.21503">
        <ele>48</ele>
        <time>2023-11-13T07:17:28Z</time>
      </trkpt>
      <trkpt lat="47.69032" lon="-2.21859">
        <ele>52</ele>
        <time>2023-11-13T07:22:51Z</time>
      </trkpt>
      <trkpt lat="47.68995" lon="-2.21924">
        <ele>53</ele>
        <time>2023-11-13T07:24:07Z</time>
      </trkpt>
      <trkpt lat="47.69257" lon="-2.22391">
        <ele>65</ele>
        <time>2023-11-13T07:33:13Z</time>
      </trkpt>
      <trkpt lat="47.69298" lon="-2.2264">
        <ele>65</ele>
        <time>2023-11-13T07:37:03Z</time>
      </trkpt>
      <trkpt lat="47.69104" lon="-2.22679">
        <ele>58</ele>
        <time>2023-11-13T07:41:25Z</time>
      </trkpt>
      <trkpt lat="47.69171" lon="-2.23297">
        <ele>57</ele>
        <time>2023-11-13T07:50:47Z</time>
      </trkpt>
      <trkpt lat="47.69084" lon="-2.23314">
        <ele>57</ele>
        <time>2023-11-13T07:52:44Z</time>
      </trkpt>
      <trkpt lat="47.69113" lon="-2.23391">
        <ele>57</ele>
        <time>2023-11-13T07:54:03Z</time>
      </trkpt>
      <trkpt lat="47.69148" lon="-2.23756">
        <ele>65</ele>
        <time>2023-11-13T07:59:34Z</time>
      </trkpt>
      <trkpt lat="47.69208" lon="-2.24091">
        <ele>61</ele>
        <time>2023-11-13T08:04:46Z</time>
      </trkpt>
      <trkpt lat="47.69226" lon="-2.24837">
        <ele>54</ele>
        <time>2023-11-13T08:15:56Z</time>
      </trkpt>
      <trkpt lat="47.69275" lon="-2.25086">
        <ele>53</ele>
        <time>2023-11-13T08:19:49Z</time>
      </trkpt>
      <trkpt lat="47.69295" lon="-2.25284">
        <ele>47</ele>
        <time>2023-11-13T08:22:49Z</time>
      </trkpt>
      <trkpt lat="47.69237" lon="-2.25421">
        <ele>48</ele>
        <time>2023-11-13T08:25:15Z</time>
      </trkpt>
      <trkpt lat="47.69246" lon="-2.25683">
        <ele>51</ele>
        <time>2023-11-13T08:29:10Z</time>
      </trkpt>
      <trkpt lat="47.6939" lon="-2.26103">
        <ele>63</ele>
        <time>2023-11-13T08:36:14Z</time>
      </trkpt>
      <trkpt lat="47.69347" lon="-2.26164">
        <ele>64</ele>
        <time>2023-11-13T08:37:33Z</time>
      </trkpt>
      <trkpt lat="47.692" lon="-2.26172">
        <ele>69</ele>
        <time>2023-11-13T08:40:49Z</time>
      </trkpt>
      <trkpt lat="47.69142" lon="-2.26116">
        <ele>72</ele>
        <time>2023-11-13T08:42:22Z</time>
      </trkpt>
      <trkpt lat="47.68761" lon="-2.26254">
        <ele>85</ele>
        <time>2023-11-13T08:51:05Z</time>
      </trkpt>
      <trkpt lat="47.68891" lon="-2.2658">
        <ele>81</ele>
        <time>2023-11-13T08:56:45Z</time>
      </trkpt>
      <trkpt lat="47.68876" lon="-2.26576">
        <ele>81</ele>
        <time>2023-11-13T08:57:06Z</time>
      </trkpt>
      <trkpt lat="47.68888" lon="-2.26584">
        <ele>81</ele>
        <time>2023-11-13T08:57:23Z</time>
      </trkpt>
      <trkpt lat="47.68977" lon="-2.2667">
        <ele>77</ele>
        <time>2023-11-13T08:59:45Z</time>
      </trkpt>
      <trkpt lat="47.69139" lon="-2.26636">
        <ele>66</ele>
        <time>2023-11-13T09:03:23Z</time>
      </trkpt>
      <trkpt lat="47.69177" lon="-2.26683">
        <ele>65</ele>
        <time>2023-11-13T09:04:29Z</time>
      </trkpt>
      <trkpt lat="47.69246" lon="-2.26966">
        <ele>64</ele>
        <time>2023-11-13T09:08:59Z</time>
      </trkpt>
      <trkpt lat="47.69278" lon="-2.27279">
        <ele>56</ele>
        <time>2023-11-13T09:13:44Z</time>
      </trkpt>
      <trkpt lat="47.6939" lon="-2.27627">
        <ele>38</ele>
        <time>2023-11-13T09:19:30Z</time>
      </trkpt>
      <trkpt lat="47.69402" lon="-2.27812">
        <ele>42</ele>
        <time>2023-11-13T09:22:17Z</time>
      </trkpt>
      <trkpt lat="47.6946" lon="-2.27915">
        <ele>45</ele>
        <time>2023-11-13T09:24:18Z</time>
      </trkpt>
      <trkpt lat="47.6939" lon="-2.28168">
        <ele>64</ele>
        <time>2023-11-13T09:28:24Z</time>
      </trkpt>
      <trkpt lat="47.69295" lon="-2.28232">
        <ele>70</ele>
        <time>2023-11-13T09:30:43Z</time>
      </trkpt>
      <trkpt lat="47.69295" lon="-2.28326">
        <ele>76</ele>
        <time>2023-11-13T09:32:07Z</time>
      </trkpt>
      <trkpt lat="47.69307" lon="-2.28678">
        <ele>76</ele>
        <time>2023-11-13T09:37:24Z</time>
      </trkpt>
      <trkpt lat="47.69812" lon="-2.28434">
        <ele>49</ele>
        <time>2023-11-13T09:49:12Z</time>
      </trkpt>
      <trkpt lat="47.69821" lon="-2.28254">
        <ele>53</ele>
        <time>2023-11-13T09:51:55Z</time>
      </trkpt>
      <trkpt lat="47.69757" lon="-2.27533">
        <ele>54</ele>
        <time>2023-11-13T10:02:48Z</time>
      </trkpt>
      <trkpt lat="47.69676" lon="-2.26966">
        <ele>41</ele>
        <time>2023-11-13T10:11:28Z</time>
      </trkpt>
      <trkpt lat="47.69636" lon="-2.26691">
        <ele>35</ele>
        <time>2023-11-13T10:15:41Z</time>
      </trkpt>
      <trkpt lat="47.69798" lon="-2.26194">
        <ele>57</ele>
        <time>2023-11-13T10:23:57Z</time>
      </trkpt>
      <trkpt lat="47.69777" lon="-2.25902">
        <ele>66</ele>
        <time>2023-11-13T10:28:21Z</time>
      </trkpt>
      <trkpt lat="47.69757" lon="-2.25709">
        <ele>70</ele>
        <time>2023-11-13T10:31:16Z</time>
      </trkpt>
      <trkpt lat="47.69795" lon="-2.2561">
        <ele>73</ele>
        <time>2023-11-13T10:32:59Z</time>
      </trkpt>
      <trkpt lat="47.6978" lon="-2.25498">
        <ele>70</ele>
        <time>2023-11-13T10:34:41Z</time>
      </trkpt>
      <trkpt lat="47.69688" lon="-2.25413">
        <ele>66</ele>
        <time>2023-11-13T10:37:06Z</time>
      </trkpt>
      <trkpt lat="47.69676" lon="-2.25241">
        <ele>65</ele>
        <time>2023-11-13T10:39:41Z</time>
      </trkpt>
      <trkpt lat="47.69725" lon="-2.25185">
        <ele>66</ele>
        <time>2023-11-13T10:41:03Z</time>
      </trkpt>
      <trkpt lat="47.69673" lon="-2.25039">
        <ele>69</ele>
        <time>2023-11-13T10:43:32Z</time>
      </trkpt>
      <trkpt lat="47.69587" lon="-2.24511">
        <ele>68</ele>
        <time>2023-11-13T10:51:40Z</time>
      </trkpt>
      <trkpt lat="47.69532" lon="-2.24048">
        <ele>70</ele>
        <time>2023-11-13T10:58:42Z</time>
      </trkpt>
      <trkpt lat="47.69474" lon="-2.23919">
        <ele>69</ele>
        <time>2023-11-13T11:01:01Z</time>
      </trkpt>
      <trkpt lat="47.69558" lon="-2.23679">
        <ele>74</ele>
        <time>2023-11-13T11:05:04Z</time>
      </trkpt>
      <trkpt lat="47.69679" lon="-2.23318">
        <ele>41</ele>
        <time>2023-11-13T11:11:07Z</time>
      </trkpt>
      <trkpt lat="47.69731" lon="-2.23061">
        <ele>27</ele>
        <time>2023-11-13T11:15:08Z</time>
      </trkpt>
      <trkpt lat="47.69642" lon="-2.22542">
        <ele>29</ele>
        <time>2023-11-13T11:23:09Z</time>
      </trkpt>
      <trkpt lat="47.69489" lon="-2.22357">
        <ele>49</ele>
        <time>2023-11-13T11:27:32Z</time>
      </trkpt>
      <trkpt lat="47.69413" lon="-2.2216">
        <ele>56</ele>
        <time>2023-11-13T11:30:56Z</time>
      </trkpt>
      <trkpt lat="47.69344" lon="-2.2213">
        <ele>65</ele>
        <time>2023-11-13T11:32:32Z</time>
      </trkpt>
      <trkpt lat="47.69318" lon="-2.22031">
        <ele>64</ele>
        <time>2023-11-13T11:34:07Z</time>
      </trkpt>
      <trkpt lat="47.69252" lon="-2.21992">
        <ele>64</ele>
        <time>2023-11-13T11:35:42Z</time>
      </trkpt>
      <trkpt lat="47.69006" lon="-2.21881">
        <ele>52</ele>
        <time>2023-11-13T11:41:25Z</time>
      </trkpt>
      <trkpt lat="47.69064" lon="-2.21443">
        <ele>48</ele>
        <time>2023-11-13T11:48:06Z</time>
      </trkpt>
      <trkpt lat="47.68966" lon="-2.21057">
        <ele>41</ele>
        <time>2023-11-13T11:54:17Z</time>
      </trkpt>
      <trkpt lat="47.6872" lon="-2.19941">
        <ele>26</ele>
        <time>2023-11-13T12:11:52Z</time>
      </trkpt>
      <trkpt lat="47.68564" lon="-2.20258">
        <ele>42</ele>
        <time>2023-11-13T12:17:44Z</time>
      </trkpt>
    </trkseg>
  </trk>
</gpx>